Santa Rosa, Texas
Current Conditions -  °F | °C
As of 1:55 PM on Thursday 23 Oct 2014 (Local Time) from KT65 Reporting Station
Scattered Clouds Scattered Clouds  
Wind Chill: 84°   Ceiling: Unl
Heat Index: 85°   Visibility: 7mi
Dew Point: 64°   Wind: 6mph
Humidity: 51%   Direction: 30°NNE
Pressure: 30.05"   Gusts: NA
Location:  26.26°N, 97.82°W
Report Text: KT65 231855Z AUTO 03005KT 7SM SCT038 SCT045 29/18 A3005 RMK AO2 T02880179
Loading
Personal Weather Stations






























Interactive Weather Map
Tropical Storm Tracking
New forecast layout! Learn more

10-Day Weather Forecast

Advertisements
Track Severe Weather on mobile